sensor_id;sensor_type;location;lat;lon;timestamp;P1;durP1;ratioP1;P2;durP2;ratioP2
8050;SDS011;4068;42.158;24.732;2024-01-30T00:01:36;9.17;;;5.43;;
8050;SDS011;4068;42.158;24.732;2024-01-30T00:04:02;8.57;;;5.47;;
8050;SDS011;4068;42.158;24.732;2024-01-30T00:06:27;9.23;;;5.50;;
8050;SDS011;4068;42.158;24.732;2024-01-30T00:08:53;7.67;;;5.13;;
8050;SDS011;4068;42.158;24.732;2024-01-30T00:11:18;6.90;;;5.20;;
8050;SDS011;4068;42.158;24.732;2024-01-30T00:13:44;10.83;;;5.30;;
8050;SDS011;4068;42.158;24.732;2024-01-30T00:16:19;6.00;;;4.73;;
8050;SDS011;4068;42.158;24.732;2024-01-30T00:18:45;8.27;;;5.07;;
8050;SDS011;4068;42.158;24.732;2024-01-30T00:21:11;8.17;;;5.33;;
8050;SDS011;4068;42.158;24.732;2024-01-30T00:23:37;7.73;;;5.33;;
8050;SDS011;4068;42.158;24.732;2024-01-30T00:26:02;8.80;;;5.13;;
8050;SDS011;4068;42.158;24.732;2024-01-30T00:28:28;14.00;;;5.33;;
8050;SDS011;4068;42.158;24.732;2024-01-30T00:30:53;8.37;;;5.47;;
8050;SDS011;4068;42.158;24.732;2024-01-30T00:33:19;12.77;;;5.63;;
8050;SDS011;4068;42.158;24.732;2024-01-30T00:35:44;8.87;;;5.30;;
8050;SDS011;4068;42.158;24.732;2024-01-30T00:38:10;9.80;;;4.87;;
8050;SDS011;4068;42.158;24.732;2024-01-30T00:40:35;7.87;;;5.70;;
8050;SDS011;4068;42.158;24.732;2024-01-30T00:43:01;9.53;;;5.67;;
8050;SDS011;4068;42.158;24.732;2024-01-30T00:45:26;7.83;;;5.50;;
8050;SDS011;4068;42.158;24.732;2024-01-30T00:47:52;8.80;;;5.87;;
8050;SDS011;4068;42.158;24.732;2024-01-30T00:50:17;10.03;;;6.60;;
8050;SDS011;4068;42.158;24.732;2024-01-30T00:52:43;9.10;;;5.83;;
8050;SDS011;4068;42.158;24.732;2024-01-30T00:55:10;10.17;;;5.87;;
8050;SDS011;4068;42.158;24.732;2024-01-30T00:57:36;10.03;;;5.67;;
8050;SDS011;4068;42.158;24.732;2024-01-30T01:00:02;11.80;;;6.40;;
8050;SDS011;4068;42.158;24.732;2024-01-30T01:02:28;10.40;;;6.00;;
8050;SDS011;4068;42.158;24.732;2024-01-30T01:04:54;11.73;;;5.63;;
8050;SDS011;4068;42.158;24.732;2024-01-30T01:07:19;11.43;;;5.87;;
8050;SDS011;4068;42.158;24.732;2024-01-30T01:09:45;9.37;;;5.83;;
8050;SDS011;4068;42.158;24.732;2024-01-30T01:12:10;13.23;;;5.90;;
8050;SDS011;4068;42.158;24.732;2024-01-30T01:14:36;10.47;;;6.50;;
8050;SDS011;4068;42.158;24.732;2024-01-30T01:17:01;11.47;;;6.10;;
8050;SDS011;4068;42.158;24.732;2024-01-30T01:19:27;9.47;;;6.30;;
8050;SDS011;4068;42.158;24.732;2024-01-30T01:21:52;10.63;;;6.07;;
8050;SDS011;4068;42.158;24.732;2024-01-30T01:24:18;8.70;;;5.87;;
8050;SDS011;4068;42.158;24.732;2024-01-30T01:26:43;11.63;;;6.70;;
8050;SDS011;4068;42.158;24.732;2024-01-30T01:29:09;12.10;;;7.20;;
8050;SDS011;4068;42.158;24.732;2024-01-30T01:31:37;11.90;;;6.87;;
8050;SDS011;4068;42.158;24.732;2024-01-30T01:34:12;11.77;;;7.43;;
8050;SDS011;4068;42.158;24.732;2024-01-30T01:36:38;13.37;;;7.47;;
8050;SDS011;4068;42.158;24.732;2024-01-30T01:39:04;13.17;;;7.17;;
8050;SDS011;4068;42.158;24.732;2024-01-30T01:41:33;14.03;;;8.17;;
8050;SDS011;4068;42.158;24.732;2024-01-30T01:43:59;19.13;;;9.23;;
8050;SDS011;4068;42.158;24.732;2024-01-30T01:46:30;17.07;;;10.00;;
8050;SDS011;4068;42.158;24.732;2024-01-30T01:48:57;22.00;;;10.77;;
8050;SDS011;4068;42.158;24.732;2024-01-30T01:51:24;17.13;;;8.70;;
8050;SDS011;4068;42.158;24.732;2024-01-30T01:53:54;13.40;;;8.10;;
8050;SDS011;4068;42.158;24.732;2024-01-30T01:56:21;15.07;;;7.97;;
8050;SDS011;4068;42.158;24.732;2024-01-30T01:58:48;17.37;;;7.90;;
8050;SDS011;4068;42.158;24.732;2024-01-30T02:01:16;10.87;;;6.07;;
8050;SDS011;4068;42.158;24.732;2024-01-30T02:03:43;11.90;;;6.77;;
8050;SDS011;4068;42.158;24.732;2024-01-30T02:06:10;14.43;;;6.50;;
8050;SDS011;4068;42.158;24.732;2024-01-30T02:08:37;12.80;;;6.77;;
8050;SDS011;4068;42.158;24.732;2024-01-30T02:11:03;13.00;;;6.83;;
8050;SDS011;4068;42.158;24.732;2024-01-30T02:13:29;13.30;;;6.93;;
8050;SDS011;4068;42.158;24.732;2024-01-30T02:15:54;15.57;;;7.03;;
8050;SDS011;4068;42.158;24.732;2024-01-30T02:18:20;12.07;;;7.10;;
8050;SDS011;4068;42.158;24.732;2024-01-30T02:20:48;13.70;;;7.33;;
8050;SDS011;4068;42.158;24.732;2024-01-30T02:23:15;15.20;;;7.57;;
8050;SDS011;4068;42.158;24.732;2024-01-30T02:25:41;12.50;;;7.00;;
8050;SDS011;4068;42.158;24.732;2024-01-30T02:28:11;18.00;;;7.47;;
8050;SDS011;4068;42.158;24.732;2024-01-30T02:30:38;10.93;;;6.77;;
8050;SDS011;4068;42.158;24.732;2024-01-30T02:33:10;11.37;;;6.57;;
8050;SDS011;4068;42.158;24.732;2024-01-30T02:35:35;10.97;;;6.27;;
8050;SDS011;4068;42.158;24.732;2024-01-30T02:38:01;11.97;;;6.73;;
8050;SDS011;4068;42.158;24.732;2024-01-30T02:40:26;12.07;;;7.07;;
8050;SDS011;4068;42.158;24.732;2024-01-30T02:42:52;12.67;;;6.80;;
8050;SDS011;4068;42.158;24.732;2024-01-30T02:45:18;13.63;;;7.23;;
8050;SDS011;4068;42.158;24.732;2024-01-30T02:47:43;12.90;;;7.03;;
8050;SDS011;4068;42.158;24.732;2024-01-30T02:50:09;10.80;;;6.47;;
8050;SDS011;4068;42.158;24.732;2024-01-30T02:52:35;13.67;;;7.70;;
8050;SDS011;4068;42.158;24.732;2024-01-30T02:55:00;15.73;;;7.30;;
8050;SDS011;4068;42.158;24.732;2024-01-30T02:57:27;11.97;;;6.83;;
8050;SDS011;4068;42.158;24.732;2024-01-30T02:59:52;17.07;;;8.43;;
8050;SDS011;4068;42.158;24.732;2024-01-30T03:02:18;15.30;;;7.43;;
8050;SDS011;4068;42.158;24.732;2024-01-30T03:04:43;12.17;;;7.37;;
8050;SDS011;4068;42.158;24.732;2024-01-30T03:07:09;13.83;;;7.60;;
8050;SDS011;4068;42.158;24.732;2024-01-30T03:09:36;15.60;;;7.90;;
8050;SDS011;4068;42.158;24.732;2024-01-30T03:12:02;12.97;;;7.13;;
8050;SDS011;4068;42.158;24.732;2024-01-30T03:14:30;12.40;;;7.10;;
8050;SDS011;4068;42.158;24.732;2024-01-30T03:16:56;16.23;;;8.37;;
8050;SDS011;4068;42.158;24.732;2024-01-30T03:19:22;15.27;;;7.43;;
8050;SDS011;4068;42.158;24.732;2024-01-30T03:21:48;11.70;;;7.17;;
8050;SDS011;4068;42.158;24.732;2024-01-30T03:24:13;20.50;;;7.37;;
8050;SDS011;4068;42.158;24.732;2024-01-30T03:26:39;18.50;;;9.07;;
8050;SDS011;4068;42.158;24.732;2024-01-30T03:29:04;14.30;;;8.10;;
8050;SDS011;4068;42.158;24.732;2024-01-30T03:31:30;13.73;;;7.30;;
8050;SDS011;4068;42.158;24.732;2024-01-30T03:33:55;28.00;;;9.50;;
8050;SDS011;4068;42.158;24.732;2024-01-30T03:36:21;19.07;;;8.60;;
8050;SDS011;4068;42.158;24.732;2024-01-30T03:38:46;23.93;;;9.53;;
8050;SDS011;4068;42.158;24.732;2024-01-30T03:41:12;15.27;;;8.27;;
8050;SDS011;4068;42.158;24.732;2024-01-30T03:43:37;22.03;;;8.17;;
8050;SDS011;4068;42.158;24.732;2024-01-30T03:46:03;14.13;;;7.67;;
8050;SDS011;4068;42.158;24.732;2024-01-30T03:48:29;13.57;;;7.33;;
8050;SDS011;4068;42.158;24.732;2024-01-30T03:50:54;14.03;;;7.13;;
8050;SDS011;4068;42.158;24.732;2024-01-30T03:53:20;12.20;;;6.77;;
8050;SDS011;4068;42.158;24.732;2024-01-30T03:55:46;11.47;;;7.17;;
8050;SDS011;4068;42.158;24.732;2024-01-30T03:58:11;14.53;;;8.00;;
8050;SDS011;4068;42.158;24.732;2024-01-30T04:00:37;13.57;;;7.40;;
8050;SDS011;4068;42.158;24.732;2024-01-30T04:03:02;12.60;;;6.73;;
8050;SDS011;4068;42.158;24.732;2024-01-30T04:05:28;16.37;;;6.77;;
8050;SDS011;4068;42.158;24.732;2024-01-30T04:07:54;12.40;;;6.60;;
8050;SDS011;4068;42.158;24.732;2024-01-30T04:10:19;11.67;;;6.83;;
8050;SDS011;4068;42.158;24.732;2024-01-30T04:12:45;14.00;;;7.37;;
8050;SDS011;4068;42.158;24.732;2024-01-30T04:15:10;12.80;;;7.20;;
8050;SDS011;4068;42.158;24.732;2024-01-30T04:17:36;12.30;;;7.10;;
8050;SDS011;4068;42.158;24.732;2024-01-30T04:20:02;13.03;;;6.90;;
8050;SDS011;4068;42.158;24.732;2024-01-30T04:22:28;14.97;;;6.70;;
8050;SDS011;4068;42.158;24.732;2024-01-30T04:24:53;13.27;;;7.03;;
8050;SDS011;4068;42.158;24.732;2024-01-30T04:27:18;11.23;;;6.80;;
8050;SDS011;4068;42.158;24.732;2024-01-30T04:29:44;15.40;;;7.07;;
8050;SDS011;4068;42.158;24.732;2024-01-30T04:32:09;12.67;;;7.23;;
8050;SDS011;4068;42.158;24.732;2024-01-30T04:34:36;16.77;;;8.10;;
8050;SDS011;4068;42.158;24.732;2024-01-30T04:37:01;11.37;;;7.17;;
8050;SDS011;4068;42.158;24.732;2024-01-30T04:39:27;12.80;;;7.40;;
8050;SDS011;4068;42.158;24.732;2024-01-30T04:41:53;11.97;;;7.13;;
8050;SDS011;4068;42.158;24.732;2024-01-30T04:44:18;18.50;;;7.43;;
8050;SDS011;4068;42.158;24.732;2024-01-30T04:46:44;11.43;;;6.90;;
8050;SDS011;4068;42.158;24.732;2024-01-30T04:49:10;12.57;;;7.13;;
8050;SDS011;4068;42.158;24.732;2024-01-30T04:51:36;17.97;;;8.60;;
8050;SDS011;4068;42.158;24.732;2024-01-30T04:54:01;20.17;;;8.47;;
8050;SDS011;4068;42.158;24.732;2024-01-30T04:56:27;16.07;;;8.37;;
8050;SDS011;4068;42.158;24.732;2024-01-30T04:58:52;17.27;;;9.30;;
8050;SDS011;4068;42.158;24.732;2024-01-30T05:01:18;16.63;;;9.13;;
8050;SDS011;4068;42.158;24.732;2024-01-30T05:03:43;13.67;;;8.80;;
8050;SDS011;4068;42.158;24.732;2024-01-30T05:06:09;15.80;;;8.77;;
8050;SDS011;4068;42.158;24.732;2024-01-30T05:08:34;18.13;;;8.57;;
8050;SDS011;4068;42.158;24.732;2024-01-30T05:11:04;15.30;;;8.10;;
8050;SDS011;4068;42.158;24.732;2024-01-30T05:13:31;16.07;;;8.37;;
8050;SDS011;4068;42.158;24.732;2024-01-30T05:15:56;13.63;;;8.17;;
8050;SDS011;4068;42.158;24.732;2024-01-30T05:18:22;15.37;;;8.07;;
8050;SDS011;4068;42.158;24.732;2024-01-30T05:20:49;16.60;;;8.70;;
8050;SDS011;4068;42.158;24.732;2024-01-30T05:23:15;18.67;;;9.23;;
8050;SDS011;4068;42.158;24.732;2024-01-30T05:25:40;18.07;;;8.83;;
8050;SDS011;4068;42.158;24.732;2024-01-30T05:28:06;12.57;;;7.80;;
8050;SDS011;4068;42.158;24.732;2024-01-30T05:30:31;12.13;;;7.83;;
8050;SDS011;4068;42.158;24.732;2024-01-30T05:32:57;13.97;;;7.73;;
8050;SDS011;4068;42.158;24.732;2024-01-30T05:35:22;18.40;;;8.60;;
8050;SDS011;4068;42.158;24.732;2024-01-30T05:37:48;13.60;;;8.13;;
8050;SDS011;4068;42.158;24.732;2024-01-30T05:40:16;14.93;;;7.83;;
8050;SDS011;4068;42.158;24.732;2024-01-30T05:42:42;18.33;;;8.90;;
8050;SDS011;4068;42.158;24.732;2024-01-30T05:45:08;18.67;;;8.30;;
8050;SDS011;4068;42.158;24.732;2024-01-30T05:47:34;17.30;;;9.37;;
8050;SDS011;4068;42.158;24.732;2024-01-30T05:50:00;24.80;;;9.13;;
8050;SDS011;4068;42.158;24.732;2024-01-30T05:52:25;23.73;;;8.47;;
8050;SDS011;4068;42.158;24.732;2024-01-30T05:54:51;17.70;;;9.20;;
8050;SDS011;4068;42.158;24.732;2024-01-30T05:57:16;13.40;;;8.60;;
8050;SDS011;4068;42.158;24.732;2024-01-30T05:59:42;22.60;;;9.00;;
8050;SDS011;4068;42.158;24.732;2024-01-30T06:02:10;24.23;;;9.77;;
8050;SDS011;4068;42.158;24.732;2024-01-30T06:04:36;19.57;;;8.90;;
8050;SDS011;4068;42.158;24.732;2024-01-30T06:07:01;18.17;;;9.43;;
8050;SDS011;4068;42.158;24.732;2024-01-30T06:09:27;18.43;;;9.80;;
8050;SDS011;4068;42.158;24.732;2024-01-30T06:11:54;18.03;;;9.23;;
8050;SDS011;4068;42.158;24.732;2024-01-30T06:14:19;19.33;;;9.53;;
8050;SDS011;4068;42.158;24.732;2024-01-30T06:16:45;16.03;;;8.77;;
8050;SDS011;4068;42.158;24.732;2024-01-30T06:19:10;19.27;;;9.00;;
8050;SDS011;4068;42.158;24.732;2024-01-30T06:21:36;17.53;;;9.47;;
8050;SDS011;4068;42.158;24.732;2024-01-30T06:24:03;23.63;;;9.90;;
8050;SDS011;4068;42.158;24.732;2024-01-30T06:26:29;17.87;;;10.47;;
8050;SDS011;4068;42.158;24.732;2024-01-30T06:28:54;26.93;;;15.13;;
8050;SDS011;4068;42.158;24.732;2024-01-30T06:31:20;27.43;;;14.63;;
8050;SDS011;4068;42.158;24.732;2024-01-30T06:33:49;28.20;;;14.73;;
8050;SDS011;4068;42.158;24.732;2024-01-30T06:36:14;24.40;;;13.10;;
8050;SDS011;4068;42.158;24.732;2024-01-30T06:38:40;21.23;;;10.57;;
8050;SDS011;4068;42.158;24.732;2024-01-30T06:41:06;15.40;;;8.77;;
8050;SDS011;4068;42.158;24.732;2024-01-30T06:43:31;16.90;;;8.30;;
8050;SDS011;4068;42.158;24.732;2024-01-30T06:45:57;18.37;;;9.00;;
8050;SDS011;4068;42.158;24.732;2024-01-30T06:48:22;16.00;;;8.63;;
8050;SDS011;4068;42.158;24.732;2024-01-30T06:50:48;17.90;;;9.07;;
8050;SDS011;4068;42.158;24.732;2024-01-30T06:53:14;27.63;;;10.10;;
8050;SDS011;4068;42.158;24.732;2024-01-30T06:55:40;26.10;;;11.17;;
8050;SDS011;4068;42.158;24.732;2024-01-30T06:58:05;22.17;;;8.80;;
8050;SDS011;4068;42.158;24.732;2024-01-30T07:00:31;15.93;;;9.50;;
8050;SDS011;4068;42.158;24.732;2024-01-30T07:02:56;18.23;;;9.13;;
8050;SDS011;4068;42.158;24.732;2024-01-30T07:05:22;20.30;;;10.87;;
8050;SDS011;4068;42.158;24.732;2024-01-30T07:07:47;20.80;;;9.63;;
8050;SDS011;4068;42.158;24.732;2024-01-30T07:10:13;20.50;;;10.53;;
8050;SDS011;4068;42.158;24.732;2024-01-30T07:12:38;20.30;;;8.90;;
8050;SDS011;4068;42.158;24.732;2024-01-30T07:15:04;16.40;;;9.03;;
8050;SDS011;4068;42.158;24.732;2024-01-30T07:17:33;16.30;;;7.17;;
8050;SDS011;4068;42.158;24.732;2024-01-30T07:19:59;19.03;;;7.97;;
8050;SDS011;4068;42.158;24.732;2024-01-30T07:22:24;13.73;;;7.63;;
8050;SDS011;4068;42.158;24.732;2024-01-30T07:24:50;16.30;;;7.70;;
8050;SDS011;4068;42.158;24.732;2024-01-30T07:27:16;13.73;;;6.53;;
8050;SDS011;4068;42.158;24.732;2024-01-30T07:29:43;17.57;;;7.13;;
8050;SDS011;4068;42.158;24.732;2024-01-30T07:32:08;14.43;;;6.80;;
8050;SDS011;4068;42.158;24.732;2024-01-30T07:34:34;14.50;;;7.17;;
8050;SDS011;4068;42.158;24.732;2024-01-30T07:37:01;12.57;;;7.40;;
8050;SDS011;4068;42.158;24.732;2024-01-30T07:39:27;14.43;;;7.90;;
8050;SDS011;4068;42.158;24.732;2024-01-30T07:41:53;15.20;;;7.33;;
8050;SDS011;4068;42.158;24.732;2024-01-30T07:44:19;15.83;;;7.90;;
8050;SDS011;4068;42.158;24.732;2024-01-30T07:46:45;19.27;;;9.33;;
8050;SDS011;4068;42.158;24.732;2024-01-30T07:49:10;14.67;;;8.87;;
8050;SDS011;4068;42.158;24.732;2024-01-30T07:51:36;20.73;;;10.43;;
8050;SDS011;4068;42.158;24.732;2024-01-30T07:54:02;21.27;;;9.70;;
8050;SDS011;4068;42.158;24.732;2024-01-30T07:56:27;21.73;;;8.50;;
8050;SDS011;4068;42.158;24.732;2024-01-30T07:58:53;16.73;;;8.10;;
8050;SDS011;4068;42.158;24.732;2024-01-30T08:01:18;11.37;;;7.80;;
8050;SDS011;4068;42.158;24.732;2024-01-30T08:03:44;18.17;;;7.93;;
8050;SDS011;4068;42.158;24.732;2024-01-30T08:06:09;13.43;;;7.83;;
8050;SDS011;4068;42.158;24.732;2024-01-30T08:08:35;15.07;;;7.43;;
8050;SDS011;4068;42.158;24.732;2024-01-30T08:11:00;12.03;;;6.40;;
8050;SDS011;4068;42.158;24.732;2024-01-30T08:13:26;15.80;;;6.60;;
8050;SDS011;4068;42.158;24.732;2024-01-30T08:15:52;22.63;;;7.47;;
8050;SDS011;4068;42.158;24.732;2024-01-30T08:18:18;13.77;;;6.50;;
8050;SDS011;4068;42.158;24.732;2024-01-30T08:20:43;11.23;;;6.77;;
8050;SDS011;4068;42.158;24.732;2024-01-30T08:23:08;11.43;;;7.43;;
8050;SDS011;4068;42.158;24.732;2024-01-30T08:25:35;15.73;;;8.10;;
8050;SDS011;4068;42.158;24.732;2024-01-30T08:28:01;12.47;;;6.70;;
8050;SDS011;4068;42.158;24.732;2024-01-30T08:30:27;15.10;;;6.97;;
8050;SDS011;4068;42.158;24.732;2024-01-30T08:32:52;9.93;;;6.47;;
8050;SDS011;4068;42.158;24.732;2024-01-30T08:35:18;25.00;;;7.07;;
8050;SDS011;4068;42.158;24.732;2024-01-30T08:37:43;13.53;;;7.07;;
8050;SDS011;4068;42.158;24.732;2024-01-30T08:40:09;14.60;;;7.83;;
8050;SDS011;4068;42.158;24.732;2024-01-30T08:42:35;13.00;;;7.93;;
8050;SDS011;4068;42.158;24.732;2024-01-30T08:45:00;18.33;;;7.90;;
8050;SDS011;4068;42.158;24.732;2024-01-30T08:47:26;12.80;;;7.37;;
8050;SDS011;4068;42.158;24.732;2024-01-30T08:49:52;14.60;;;7.77;;
8050;SDS011;4068;42.158;24.732;2024-01-30T08:52:17;19.03;;;7.70;;
8050;SDS011;4068;42.158;24.732;2024-01-30T08:54:43;17.67;;;7.30;;
8050;SDS011;4068;42.158;24.732;2024-01-30T08:57:08;11.90;;;6.47;;
8050;SDS011;4068;42.158;24.732;2024-01-30T08:59:34;11.13;;;6.50;;
8050;SDS011;4068;42.158;24.732;2024-01-30T09:01:59;13.13;;;6.43;;
8050;SDS011;4068;42.158;24.732;2024-01-30T09:04:25;11.20;;;6.03;;
8050;SDS011;4068;42.158;24.732;2024-01-30T09:06:53;11.47;;;6.40;;
8050;SDS011;4068;42.158;24.732;2024-01-30T09:09:19;16.70;;;6.50;;
8050;SDS011;4068;42.158;24.732;2024-01-30T09:11:44;11.67;;;6.20;;
8050;SDS011;4068;42.158;24.732;2024-01-30T09:14:10;16.50;;;6.73;;
8050;SDS011;4068;42.158;24.732;2024-01-30T09:16:35;9.60;;;5.90;;
8050;SDS011;4068;42.158;24.732;2024-01-30T09:19:01;13.13;;;5.87;;
8050;SDS011;4068;42.158;24.732;2024-01-30T09:21:26;8.83;;;5.10;;
8050;SDS011;4068;42.158;24.732;2024-01-30T09:24:10;11.13;;;5.33;;
8050;SDS011;4068;42.158;24.732;2024-01-30T09:26:36;12.53;;;5.90;;
8050;SDS011;4068;42.158;24.732;2024-01-30T09:29:02;13.10;;;6.93;;
8050;SDS011;4068;42.158;24.732;2024-01-30T09:31:27;8.63;;;6.20;;
8050;SDS011;4068;42.158;24.732;2024-01-30T09:33:53;9.73;;;6.50;;
8050;SDS011;4068;42.158;24.732;2024-01-30T09:36:19;11.80;;;6.07;;
8050;SDS011;4068;42.158;24.732;2024-01-30T09:38:45;11.63;;;7.30;;
8050;SDS011;4068;42.158;24.732;2024-01-30T09:41:11;13.03;;;7.13;;
8050;SDS011;4068;42.158;24.732;2024-01-30T09:43:38;19.43;;;7.40;;
8050;SDS011;4068;42.158;24.732;2024-01-30T09:46:05;11.33;;;6.63;;
8050;SDS011;4068;42.158;24.732;2024-01-30T09:48:30;10.47;;;7.33;;
8050;SDS011;4068;42.158;24.732;2024-01-30T09:50:58;12.97;;;7.30;;
8050;SDS011;4068;42.158;24.732;2024-01-30T09:53:24;12.80;;;7.60;;
8050;SDS011;4068;42.158;24.732;2024-01-30T09:55:50;15.87;;;6.70;;
8050;SDS011;4068;42.158;24.732;2024-01-30T09:58:16;12.13;;;6.83;;
8050;SDS011;4068;42.158;24.732;2024-01-30T10:00:42;17.37;;;7.67;;
8050;SDS011;4068;42.158;24.732;2024-01-30T10:03:08;11.90;;;7.43;;
8050;SDS011;4068;42.158;24.732;2024-01-30T10:05:34;12.23;;;6.83;;
8050;SDS011;4068;42.158;24.732;2024-01-30T10:08:05;12.80;;;7.80;;
8050;SDS011;4068;42.158;24.732;2024-01-30T10:10:31;11.40;;;7.57;;
8050;SDS011;4068;42.158;24.732;2024-01-30T10:12:56;19.23;;;7.47;;
8050;SDS011;4068;42.158;24.732;2024-01-30T10:15:22;10.30;;;7.47;;
8050;SDS011;4068;42.158;24.732;2024-01-30T10:17:48;13.53;;;7.27;;
8050;SDS011;4068;42.158;24.732;2024-01-30T10:20:14;15.27;;;7.97;;
8050;SDS011;4068;42.158;24.732;2024-01-30T10:22:42;13.23;;;7.20;;
8050;SDS011;4068;42.158;24.732;2024-01-30T10:25:09;11.60;;;6.82;;
8050;SDS011;4068;42.158;24.732;2024-01-30T10:27:35;9.13;;;6.33;;
8050;SDS011;4068;42.158;24.732;2024-01-30T10:30:00;11.43;;;6.30;;
8050;SDS011;4068;42.158;24.732;2024-01-30T10:32:26;11.93;;;6.80;;
8050;SDS011;4068;42.158;24.732;2024-01-30T10:34:52;16.20;;;6.72;;
8050;SDS011;4068;42.158;24.732;2024-01-30T10:37:17;15.65;;;7.25;;
8050;SDS011;4068;42.158;24.732;2024-01-30T10:39:44;10.18;;;6.88;;
8050;SDS011;4068;42.158;24.732;2024-01-30T10:42:11;10.57;;;5.82;;
8050;SDS011;4068;42.158;24.732;2024-01-30T10:44:50;12.90;;;6.63;;
8050;SDS011;4068;42.158;24.732;2024-01-30T10:47:18;11.88;;;5.43;;
8050;SDS011;4068;42.158;24.732;2024-01-30T10:49:51;15.03;;;7.07;;
8050;SDS011;4068;42.158;24.732;2024-01-30T10:52:19;13.40;;;6.43;;
8050;SDS011;4068;42.158;24.732;2024-01-30T10:54:45;11.75;;;6.72;;
8050;SDS011;4068;42.158;24.732;2024-01-30T10:57:12;8.57;;;5.32;;
8050;SDS011;4068;42.158;24.732;2024-01-30T10:59:40;8.10;;;5.05;;
8050;SDS011;4068;42.158;24.732;2024-01-30T11:02:07;14.25;;;5.70;;
8050;SDS011;4068;42.158;24.732;2024-01-30T11:04:37;5.72;;;4.40;;
8050;SDS011;4068;42.158;24.732;2024-01-30T11:07:15;7.30;;;4.95;;
8050;SDS011;4068;42.158;24.732;2024-01-30T11:12:23;6.45;;;4.47;;
8050;SDS011;4068;42.158;24.732;2024-01-30T11:15:01;7.32;;;5.00;;
8050;SDS011;4068;42.158;24.732;2024-01-30T11:20:10;22.85;;;6.03;;
8050;SDS011;4068;42.158;24.732;2024-01-30T11:22:51;7.75;;;4.45;;
8050;SDS011;4068;42.158;24.732;2024-01-30T11:25:21;9.73;;;4.32;;
8050;SDS011;4068;42.158;24.732;2024-01-30T11:27:51;11.35;;;4.78;;
8050;SDS011;4068;42.158;24.732;2024-01-30T11:35:38;4.63;;;4.03;;
8050;SDS011;4068;42.158;24.732;2024-01-30T11:38:05;6.10;;;4.70;;
8050;SDS011;4068;42.158;24.732;2024-01-30T11:40:32;6.18;;;4.68;;
8050;SDS011;4068;42.158;24.732;2024-01-30T11:43:00;6.63;;;4.68;;
8050;SDS011;4068;42.158;24.732;2024-01-30T11:45:26;8.80;;;5.50;;
8050;SDS011;4068;42.158;24.732;2024-01-30T11:47:52;8.07;;;5.38;;
8050;SDS011;4068;42.158;24.732;2024-01-30T11:50:18;8.30;;;5.43;;
8050;SDS011;4068;42.158;24.732;2024-01-30T11:52:44;6.45;;;4.50;;
8050;SDS011;4068;42.158;24.732;2024-01-30T11:55:09;8.52;;;5.05;;
8050;SDS011;4068;42.158;24.732;2024-01-30T11:57:35;8.07;;;4.53;;
8050;SDS011;4068;42.158;24.732;2024-01-30T12:00:05;6.97;;;4.57;;
8050;SDS011;4068;42.158;24.732;2024-01-30T12:02:38;6.68;;;4.43;;
8050;SDS011;4068;42.158;24.732;2024-01-30T12:05:04;5.00;;;3.85;;
8050;SDS011;4068;42.158;24.732;2024-01-30T12:07:30;4.97;;;4.18;;
8050;SDS011;4068;42.158;24.732;2024-01-30T12:09:56;4.53;;;3.70;;
8050;SDS011;4068;42.158;24.732;2024-01-30T12:12:25;6.82;;;4.07;;
8050;SDS011;4068;42.158;24.732;2024-01-30T12:14:52;4.38;;;3.60;;
8050;SDS011;4068;42.158;24.732;2024-01-30T12:17:27;5.32;;;3.97;;
8050;SDS011;4068;42.158;24.732;2024-01-30T12:20:04;7.18;;;4.25;;
8050;SDS011;4068;42.158;24.732;2024-01-30T12:22:32;6.68;;;3.60;;
8050;SDS011;4068;42.158;24.732;2024-01-30T12:25:05;9.77;;;4.68;;
8050;SDS011;4068;42.158;24.732;2024-01-30T12:27:33;5.23;;;3.60;;
8050;SDS011;4068;42.158;24.732;2024-01-30T12:29:59;7.95;;;4.13;;
8050;SDS011;4068;42.158;24.732;2024-01-30T12:32:24;4.50;;;3.50;;
8050;SDS011;4068;42.158;24.732;2024-01-30T12:34:50;5.63;;;3.80;;
8050;SDS011;4068;42.158;24.732;2024-01-30T12:37:15;4.87;;;4.20;;
8050;SDS011;4068;42.158;24.732;2024-01-30T12:39:47;4.63;;;3.67;;
8050;SDS011;4068;42.158;24.732;2024-01-30T12:42:13;5.97;;;3.58;;
8050;SDS011;4068;42.158;24.732;2024-01-30T12:44:39;4.40;;;3.92;;
8050;SDS011;4068;42.158;24.732;2024-01-30T12:47:08;5.10;;;3.93;;
8050;SDS011;4068;42.158;24.732;2024-01-30T12:49:34;7.30;;;4.15;;
8050;SDS011;4068;42.158;24.732;2024-01-30T12:51:59;7.53;;;4.35;;
8050;SDS011;4068;42.158;24.732;2024-01-30T12:54:25;5.38;;;4.03;;
8050;SDS011;4068;42.158;24.732;2024-01-30T12:56:50;4.40;;;3.90;;
8050;SDS011;4068;42.158;24.732;2024-01-30T12:59:16;6.18;;;3.97;;
8050;SDS011;4068;42.158;24.732;2024-01-30T13:01:41;5.05;;;3.70;;
8050;SDS011;4068;42.158;24.732;2024-01-30T13:04:07;4.18;;;3.72;;
8050;SDS011;4068;42.158;24.732;2024-01-30T13:06:32;7.13;;;4.70;;
8050;SDS011;4068;42.158;24.732;2024-01-30T13:08:58;6.55;;;4.07;;
8050;SDS011;4068;42.158;24.732;2024-01-30T13:11:23;8.13;;;4.90;;
8050;SDS011;4068;42.158;24.732;2024-01-30T13:13:50;7.25;;;4.47;;
8050;SDS011;4068;42.158;24.732;2024-01-30T13:16:16;6.77;;;4.50;;
8050;SDS011;4068;42.158;24.732;2024-01-30T13:18:41;14.18;;;4.38;;
8050;SDS011;4068;42.158;24.732;2024-01-30T13:21:07;10.05;;;5.03;;
8050;SDS011;4068;42.158;24.732;2024-01-30T13:23:32;6.10;;;4.53;;
8050;SDS011;4068;42.158;24.732;2024-01-30T13:25:58;10.17;;;4.70;;
8050;SDS011;4068;42.158;24.732;2024-01-30T13:28:24;5.67;;;4.30;;
8050;SDS011;4068;42.158;24.732;2024-01-30T13:30:50;5.23;;;3.97;;
8050;SDS011;4068;42.158;24.732;2024-01-30T13:33:17;5.73;;;4.10;;
8050;SDS011;4068;42.158;24.732;2024-01-30T13:35:42;7.43;;;4.97;;
8050;SDS011;4068;42.158;24.732;2024-01-30T13:38:08;6.53;;;3.80;;
8050;SDS011;4068;42.158;24.732;2024-01-30T13:40:34;5.07;;;4.30;;
8050;SDS011;4068;42.158;24.732;2024-01-30T13:42:59;5.10;;;3.93;;
8050;SDS011;4068;42.158;24.732;2024-01-30T13:45:25;4.73;;;3.90;;
8050;SDS011;4068;42.158;24.732;2024-01-30T13:47:50;5.63;;;4.20;;
8050;SDS011;4068;42.158;24.732;2024-01-30T13:50:16;7.17;;;4.83;;
8050;SDS011;4068;42.158;24.732;2024-01-30T13:52:42;8.43;;;4.97;;
8050;SDS011;4068;42.158;24.732;2024-01-30T13:55:08;11.37;;;5.03;;
8050;SDS011;4068;42.158;24.732;2024-01-30T13:57:35;7.83;;;5.67;;
8050;SDS011;4068;42.158;24.732;2024-01-30T14:00:04;13.40;;;5.80;;
8050;SDS011;4068;42.158;24.732;2024-01-30T14:02:32;13.70;;;5.90;;
8050;SDS011;4068;42.158;24.732;2024-01-30T14:04:58;13.03;;;5.83;;
8050;SDS011;4068;42.158;24.732;2024-01-30T14:07:24;10.97;;;5.27;;
8050;SDS011;4068;42.158;24.732;2024-01-30T14:09:49;8.90;;;5.37;;
8050;SDS011;4068;42.158;24.732;2024-01-30T14:12:15;13.30;;;5.13;;
8050;SDS011;4068;42.158;24.732;2024-01-30T14:14:41;13.47;;;5.40;;
8050;SDS011;4068;42.158;24.732;2024-01-30T14:17:07;10.23;;;5.80;;
8050;SDS011;4068;42.158;24.732;2024-01-30T14:19:33;7.67;;;5.03;;
8050;SDS011;4068;42.158;24.732;2024-01-30T14:22:00;10.23;;;5.43;;
8050;SDS011;4068;42.158;24.732;2024-01-30T14:24:26;13.13;;;6.43;;
8050;SDS011;4068;42.158;24.732;2024-01-30T14:26:52;10.30;;;5.60;;
8050;SDS011;4068;42.158;24.732;2024-01-30T14:29:17;11.77;;;5.20;;
8050;SDS011;4068;42.158;24.732;2024-01-30T14:31:43;13.63;;;6.03;;
8050;SDS011;4068;42.158;24.732;2024-01-30T14:34:08;14.30;;;5.30;;
8050;SDS011;4068;42.158;24.732;2024-01-30T14:36:36;8.47;;;5.13;;
8050;SDS011;4068;42.158;24.732;2024-01-30T14:39:02;10.13;;;5.70;;
8050;SDS011;4068;42.158;24.732;2024-01-30T14:41:28;11.73;;;5.60;;
8050;SDS011;4068;42.158;24.732;2024-01-30T14:43:54;14.13;;;5.43;;
8050;SDS011;4068;42.158;24.732;2024-01-30T14:46:20;7.07;;;5.00;;
8050;SDS011;4068;42.158;24.732;2024-01-30T14:48:46;7.90;;;5.97;;
8050;SDS011;4068;42.158;24.732;2024-01-30T14:51:12;13.37;;;5.50;;
8050;SDS011;4068;42.158;24.732;2024-01-30T14:53:38;10.90;;;4.87;;
8050;SDS011;4068;42.158;24.732;2024-01-30T14:56:04;8.50;;;5.20;;